Time;durP1;ratioP1;P1;durP2;ratioP2;P2;SDS_P1;SDS_P2;PMS_P1;PMS_P2;Temp;Humidity;BMP_temperature;BMP_pressure;BME280_temperature;BME280_humidity;BME280_pressure;Samples;Min_cycle;Max_cycle;Signal;HPM_P1;HPM_P2
2023/06/22 00:00:22;;;;;;;0.30;0.30;;;;;;;20.18;85.51;96909.00;29394;205;64009;-52
2023/06/22 00:00:54;;;;;;;0.30;0.30;;;;;;;20.18;85.00;96909.00;29394;225;64014;-52
2023/06/22 00:01:27;;;;;;;0.40;0.40;;;;;;;20.17;85.45;96915.66;29395;222;63005;-52
2023/06/22 00:01:59;;;;;;;0.30;0.30;;;;;;;20.15;85.02;96910.50;29395;198;63014;-53
2023/06/22 00:02:33;;;;;;;0.30;0.30;;;;;;;20.14;84.98;96908.91;29394;262;64009;-60
2023/06/22 00:03:05;;;;;;;0.30;0.30;;;;;;;20.13;84.91;96914.75;29395;260;63009;-53
2023/06/22 00:03:36;;;;;;;0.30;0.30;;;;;;;20.12;85.04;96910.41;29395;202;63005;-53
2023/06/22 00:04:08;;;;;;;0.30;0.30;;;;;;;20.14;84.67;96913.59;29395;278;63009;-53
2023/06/22 00:04:39;;;;;;;0.40;0.40;;;;;;;20.15;84.64;96909.69;29395;228;63004;-53
2023/06/22 00:05:10;;;;;;;0.30;0.30;;;;;;;20.14;84.22;96906.16;29395;245;63009;-53
2023/06/22 00:05:41;;;;;;;0.30;0.30;;;;;;;20.16;84.17;96911.31;29395;227;63004;-53
2023/06/22 00:06:13;;;;;;;0.30;0.30;;;;;;;20.17;83.74;96910.16;29395;209;63009;-53
2023/06/22 00:06:44;;;;;;;0.30;0.30;;;;;;;20.18;83.97;96914.50;29395;196;63004;-53
2023/06/22 00:07:15;;;;;;;0.30;0.30;;;;;;;20.19;83.66;96916.09;29394;272;64013;-54
2023/06/22 00:07:47;;;;;;;0.30;0.30;;;;;;;20.19;83.39;96911.41;29395;227;63004;-53
2023/06/22 00:08:19;;;;;;;0.30;0.30;;;;;;;20.21;84.09;96919.31;29394;259;64014;-53
2023/06/22 00:08:50;;;;;;;0.30;0.30;;;;;;;20.20;84.50;96913.00;29395;315;63005;-54
2023/06/22 00:09:22;;;;;;;0.30;0.30;;;;;;;20.20;84.51;96912.19;29395;233;63009;-52
2023/06/22 00:09:53;;;;;;;0.30;0.30;;;;;;;20.18;84.38;96912.56;29395;215;63005;-53
2023/06/22 00:10:24;;;;;;;0.37;0.37;;;;;;;20.18;84.38;96909.00;29395;231;63009;-53
2023/06/22 00:10:55;;;;;;;0.30;0.30;;;;;;;20.17;83.96;96908.19;29395;196;63005;-53
2023/06/22 00:11:27;;;;;;;0.30;0.30;;;;;;;20.17;83.70;96912.91;29395;238;63009;-52
2023/06/22 00:11:59;;;;;;;0.30;0.30;;;;;;;20.18;83.94;96914.50;29395;225;63017;-53
2023/06/22 00:12:32;;;;;;;0.30;0.30;;;;;;;20.18;83.83;96903.50;29395;203;63009;-53
2023/06/22 00:13:03;;;;;;;0.30;0.30;;;;;;;20.18;83.40;96907.03;29395;290;63008;-52
2023/06/22 00:13:35;;;;;;;0.30;0.30;;;;;;;20.19;83.70;96910.59;29394;202;64013;-53
2023/06/22 00:14:06;;;;;;;0.30;0.30;;;;;;;20.21;83.22;96911.03;29394;203;64009;-52
2023/06/22 00:14:39;;;;;;;0.30;0.30;;;;;;;20.23;83.46;96911.50;29394;220;64013;-53
2023/06/22 00:15:10;;;;;;;0.30;0.30;;;;;;;20.23;83.55;96911.50;29395;208;63004;-52
2023/06/22 00:15:42;;;;;;;0.30;0.30;;;;;;;20.23;83.18;96914.25;29395;198;63009;-53
2023/06/22 00:16:14;;;;;;;0.30;0.30;;;;;;;20.23;82.95;96919.75;29395;224;63005;-53
2023/06/22 00:16:48;;;;;;;0.30;0.30;;;;;;;20.23;83.12;96911.50;29395;220;63009;-53
2023/06/22 00:17:23;;;;;;;0.30;0.30;;;;;;;20.23;83.40;96915.03;29395;235;63013;-53
2023/06/22 00:17:56;;;;;;;0.40;0.40;;;;;;;20.23;83.67;96906.78;29395;248;63009;-53
2023/06/22 00:18:30;;;;;;;0.30;0.30;;;;;;;20.18;85.60;96914.50;29395;206;63005;-58
2023/06/22 00:19:03;;;;;;;0.30;0.30;;;;;;;20.15;85.86;96906.94;29395;223;63009;-53
2023/06/22 00:19:35;;;;;;;0.30;0.30;;;;;;;20.13;85.42;96907.31;29394;215;64001;-53
2023/06/22 00:20:10;;;;;;;0.40;0.40;;;;;;;20.12;84.93;96913.97;29395;224;63009;-57
2023/06/22 00:20:42;;;;;;;0.40;0.40;;;;;;;20.13;85.12;96918.31;29395;281;63004;-53
2023/06/22 00:21:13;;;;;;;0.30;0.30;;;;;;;20.13;85.06;96923.03;29395;215;63009;-53
2023/06/22 00:21:46;;;;;;;0.30;0.30;;;;;;;20.13;84.64;96923.81;29395;215;63004;-53
2023/06/22 00:22:18;;;;;;;0.30;0.30;;;;;;;20.15;84.34;96926.22;29395;224;63008;-53
2023/06/22 00:22:49;;;;;;;0.40;0.40;;;;;;;20.15;84.06;96921.53;29395;270;63004;-52
2023/06/22 00:23:20;;;;;;;0.30;0.30;;;;;;;20.16;84.61;96925.06;29394;244;64014;-53
2023/06/22 00:23:51;;;;;;;0.30;0.30;;;;;;;20.15;85.28;96924.28;29395;199;63008;-53
2023/06/22 00:24:24;;;;;;;0.30;0.30;;;;;;;20.14;84.74;96919.91;29394;203;64014;-53
2023/06/22 00:24:56;;;;;;;0.77;0.77;;;;;;;20.15;84.18;96923.47;29395;202;63005;-53
2023/06/22 00:25:31;;;;;;;0.32;0.32;;;;;;;20.15;84.03;96923.47;29395;226;63015;-54
2023/06/22 00:26:02;;;;;;;0.30;0.30;;;;;;;20.15;83.91;96920.72;29394;247;64009;-53
2023/06/22 00:26:33;;;;;;;0.30;0.30;;;;;;;20.16;83.80;96917.62;29395;240;63009;-58
2023/06/22 00:27:05;;;;;;;0.37;0.37;;;;;;;20.18;83.82;96920.00;29395;285;63005;-53
2023/06/22 00:27:37;;;;;;;0.30;0.30;;;;;;;20.20;83.34;96925.97;29395;216;63009;-53
2023/06/22 00:28:12;;;;;;;0.30;0.30;;;;;;;20.21;83.52;96916.56;29395;248;63004;-52
2023/06/22 00:28:43;;;;;;;0.30;0.30;;;;;;;20.21;83.26;96924.81;29395;264;63009;-52
2023/06/22 00:29:15;;;;;;;0.30;0.30;;;;;;;20.21;83.64;96930.31;29395;196;63013;-53
2023/06/22 00:29:46;;;;;;;0.32;0.32;;;;;;;20.20;83.82;96924.03;29395;212;63008;-53
2023/06/22 00:30:19;;;;;;;0.30;0.30;;;;;;;20.18;83.65;96920.81;29395;196;63004;-53
2023/06/22 00:30:50;;;;;;;0.30;0.30;;;;;;;20.18;83.86;96920.81;29394;268;64014;-53
2023/06/22 00:31:21;;;;;;;0.30;0.30;;;;;;;20.17;83.45;96916.47;29395;272;63005;-52
2023/06/22 00:31:53;;;;;;;0.30;0.30;;;;;;;20.18;83.59;96914.50;29395;212;63009;-53
2023/06/22 00:32:24;;;;;;;0.30;0.30;;;;;;;20.19;83.28;96916.91;29395;228;63005;-53
2023/06/22 00:32:55;;;;;;;0.30;0.30;;;;;;;20.20;83.09;96917.72;29395;232;63009;-52
2023/06/22 00:33:28;;;;;;;0.30;0.30;;;;;;;20.20;82.88;96912.19;29395;272;63005;-53
2023/06/22 00:33:59;;;;;;;0.30;0.30;;;;;;;20.20;82.82;96912.19;29395;258;63009;-57
2023/06/22 00:34:31;;;;;;;0.30;0.30;;;;;;;20.22;83.10;96915.41;29395;242;63004;-53
2023/06/22 00:35:03;;;;;;;0.30;0.30;;;;;;;20.21;82.79;96913.81;29395;202;63009;-53
2023/06/22 00:35:34;;;;;;;0.30;0.30;;;;;;;20.22;83.13;96915.41;29395;293;63004;-53
2023/06/22 00:36:07;;;;;;;0.30;0.30;;;;;;;20.22;82.73;96915.41;29394;264;64013;-53
2023/06/22 00:36:40;;;;;;;0.30;0.30;;;;;;;20.24;82.88;96913.09;29394;293;64008;-58
2023/06/22 00:37:12;;;;;;;0.40;0.40;;;;;;;20.25;82.48;96911.94;29395;245;63008;-51
2023/06/22 00:37:43;;;;;;;0.30;0.30;;;;;;;20.26;82.57;96905.28;29395;231;63004;-52
2023/06/22 00:38:15;;;;;;;0.30;0.30;;;;;;;20.26;82.62;96899.75;29395;238;63009;-52
2023/06/22 00:38:46;;;;;;;0.30;0.30;;;;;;;20.26;82.73;96905.28;29395;224;63005;-52
2023/06/22 00:39:17;;;;;;;0.32;0.32;;;;;;;20.27;82.44;96901.38;29395;243;63009;-52
2023/06/22 00:39:49;;;;;;;0.30;0.30;;;;;;;20.26;82.35;96892.31;29395;317;63005;-54
2023/06/22 00:40:21;;;;;;;0.30;0.30;;;;;;;20.28;82.35;96897.47;29395;229;63009;-61
2023/06/22 00:40:52;;;;;;;0.30;0.30;;;;;;;20.32;81.70;96892.84;29395;260;63014;-57
2023/06/22 00:41:24;;;;;;;0.30;0.30;;;;;;;20.32;81.85;96893.63;29394;206;64013;-53
2023/06/22 00:41:55;;;;;;;0.30;0.30;;;;;;;20.33;81.58;96898.00;29395;212;63004;-53
2023/06/22 00:42:27;;;;;;;0.30;0.30;;;;;;;20.35;81.69;96892.13;29395;271;63009;-53
2023/06/22 00:42:59;;;;;;;0.30;0.30;;;;;;;20.36;81.40;96900.03;29394;199;64009;-53
2023/06/22 00:43:30;;;;;;;0.37;0.37;;;;;;;20.37;81.68;96895.31;29395;198;63009;-53
2023/06/22 00:44:02;;;;;;;0.30;0.30;;;;;;;20.39;81.35;96895.81;29395;215;63004;-52
2023/06/22 00:44:33;;;;;;;0.30;0.30;;;;;;;20.42;80.91;96892.34;29395;228;63008;-52
2023/06/22 00:45:06;;;;;;;0.30;0.30;;;;;;;20.42;80.76;96897.84;29395;209;63005;-53
2023/06/22 00:45:38;;;;;;;0.30;0.30;;;;;;;20.41;81.19;96899.00;29395;206;63009;-57
2023/06/22 00:46:09;;;;;;;0.30;0.30;;;;;;;20.39;81.00;96904.88;29395;248;63005;-52
2023/06/22 00:46:41;;;;;;;0.30;0.30;;;;;;;20.37;81.52;96907.19;29395;204;63009;-51
2023/06/22 00:47:15;;;;;;;0.30;0.30;;;;;;;20.36;81.20;96908.31;29395;242;63005;-52
2023/06/22 00:47:47;;;;;;;0.30;0.30;;;;;;;20.35;81.59;96909.47;29395;212;63009;-52
2023/06/22 00:48:18;;;;;;;0.40;0.40;;;;;;;20.33;82.25;96909.00;29394;203;64009;-52
2023/06/22 00:48:52;;;;;;;0.30;0.30;;;;;;;20.31;81.95;96907.78;29395;253;63009;-52
2023/06/22 00:49:24;;;;;;;0.30;0.30;;;;;;;20.30;81.82;96906.16;29395;226;63004;-52
2023/06/22 00:49:55;;;;;;;0.30;0.30;;;;;;;20.30;82.00;96908.91;29394;225;64009;-53
2023/06/22 00:50:33;;;;;;;0.30;0.30;;;;;;;20.30;81.85;96917.19;29395;213;63004;-53
2023/06/22 00:51:06;;;;;;;0.30;0.30;;;;;;;20.29;82.00;96910.06;29395;206;63009;-52
2023/06/22 00:51:39;;;;;;;0.30;0.30;;;;;;;20.28;82.05;96913.97;29395;199;63004;-52
2023/06/22 00:52:13;;;;;;;0.30;0.30;;;;;;;20.27;82.05;96918.69;29394;254;64013;-52
2023/06/22 00:52:46;;;;;;;0.30;0.30;;;;;;;20.27;81.79;96923.41;29395;217;63005;-53
2023/06/22 00:53:18;;;;;;;0.30;0.30;;;;;;;20.27;82.21;96920.66;29395;197;63009;-52
2023/06/22 00:53:51;;;;;;;0.30;0.30;;;;;;;20.30;81.88;96922.69;29395;222;63009;-52
2023/06/22 00:54:24;;;;;;;0.30;0.30;;;;;;;20.30;81.71;96928.22;29395;207;63009;-52
2023/06/22 00:54:57;;;;;;;0.30;0.30;;;;;;;20.30;81.36;96922.69;29395;202;63009;-52
2023/06/22 00:55:28;;;;;;;0.30;0.30;;;;;;;20.31;81.90;96918.78;29395;236;63009;-52
2023/06/22 00:55:59;;;;;;;0.30;0.30;;;;;;;20.32;81.40;96925.91;29395;225;63000;-53
2023/06/22 00:56:32;;;;;;;0.40;0.40;;;;;;;20.32;81.47;96923.94;29395;224;63009;-52
2023/06/22 00:57:04;;;;;;;0.30;0.30;;;;;;;20.32;81.36;96923.16;29394;222;64009;-52
2023/06/22 00:57:37;;;;;;;0.40;0.40;;;;;;;20.32;81.10;96918.44;29395;287;63009;-52
2023/06/22 00:58:10;;;;;;;0.30;0.30;;;;;;;20.33;81.15;96916.47;29395;293;63004;-52
2023/06/22 00:58:41;;;;;;;0.40;0.40;;;;;;;20.32;81.31;96920.38;29395;202;63009;-52
2023/06/22 00:59:13;;;;;;;0.30;0.30;;;;;;;20.31;81.33;96924.31;29395;325;63004;-52
2023/06/22 00:59:48;;;;;;;0.30;0.30;;;;;;;20.32;81.64;96928.66;29395;242;63008;-53
2023/06/22 01:00:20;;;;;;;0.30;0.30;;;;;;;20.31;81.67;96929.81;29395;254;63005;-53
2023/06/22 01:00:52;;;;;;;0.30;0.30;;;;;;;20.31;81.83;96929.81;29395;242;63009;-53
2023/06/22 01:01:23;;;;;;;0.30;0.30;;;;;;;20.30;81.55;96933.72;29395;210;63005;-53
2023/06/22 01:01:55;;;;;;;0.30;0.30;;;;;;;20.30;81.65;96934.53;29395;308;63009;-53
2023/06/22 01:02:26;;;;;;;0.30;0.30;;;;;;;20.30;81.85;96941.97;29394;206;64009;-54
2023/06/22 01:02:57;;;;;;;0.40;0.40;;;;;;;20.30;81.91;96929.00;29395;207;63009;-53
2023/06/22 01:03:28;;;;;;;0.30;0.30;;;;;;;20.28;81.92;96933.28;29395;218;63005;-53
2023/06/22 01:04:00;;;;;;;0.30;0.30;;;;;;;20.28;82.58;96936.03;29395;211;63009;-53
2023/06/22 01:04:36;;;;;;;0.30;0.30;;;;;;;20.26;83.09;96938.34;29395;226;63004;-53
2023/06/22 01:05:08;;;;;;;0.35;0.35;;;;;;;20.25;82.21;96945.00;29395;211;63009;-54
2023/06/22 01:05:40;;;;;;;0.30;0.30;;;;;;;20.24;82.57;96944.19;29395;219;63004;-53
2023/06/22 01:06:20;;;;;;;0.30;0.30;;;;;;;20.23;83.35;96945.34;29394;203;64013;-53
2023/06/22 01:07:34;;;;;;;0.30;0.30;;;;;;;20.19;85.23;96954.69;29395;246;63004;-53
2023/06/22 01:08:34;;;;;;;0.40;0.40;;;;;;;20.11;86.12;96969.41;29395;306;63009;-53
2023/06/22 01:09:20;;;;;;;0.30;0.30;;;;;;;20.05;85.93;96972.44;29395;239;63009;-53
2023/06/22 01:10:14;;;;;;;0.30;0.30;;;;;;;20.02;85.96;96978.66;29395;263;63005;-53
2023/06/22 01:11:01;;;;;;;0.30;0.30;;;;;;;19.97;86.70;96989.91;29394;256;64013;-52
2023/06/22 01:11:42;;;;;;;0.40;0.40;;;;;;;19.94;86.17;96981.56;29395;263;63005;-52
2023/06/22 01:12:17;;;;;;;0.40;0.40;;;;;;;19.90;86.21;96981.44;29417;273;63009;-52
2023/06/22 01:13:11;;;;;;;0.40;0.40;;;;;;;19.89;85.63;96968.03;29373;203;63000;-52
2023/06/22 01:14:11;;;;;;;0.40;0.40;;;;;;;19.88;85.82;96966.44;29395;226;63020;-52
2023/06/22 01:14:52;;;;;;;0.40;0.40;;;;;;;19.89;85.24;96970.78;29395;281;63004;-52
2023/06/22 01:15:29;;;;;;;0.30;0.30;;;;;;;19.89;85.04;96968.84;29417;236;63009;-52
2023/06/22 01:16:11;;;;;;;0.32;0.32;;;;;;;19.88;85.20;96963.69;29394;246;64009;-52
2023/06/22 01:16:45;;;;;;;0.35;0.35;;;;;;;19.87;85.13;96960.13;29395;206;63009;-52
2023/06/22 01:17:19;;;;;;;0.30;0.30;;;;;;;19.86;84.84;96953.00;29395;229;63005;-52
2023/06/22 01:17:53;;;;;;;0.40;0.40;;;;;;;19.86;85.12;96955.75;29395;228;63009;-53
2023/06/22 01:18:30;;;;;;;0.30;0.30;;;;;;;19.87;84.95;96953.81;29395;271;63005;-53
2023/06/22 01:19:17;;;;;;;0.40;0.40;;;;;;;19.86;84.85;96947.50;29395;297;63009;-58
2023/06/22 01:19:57;;;;;;;0.30;0.30;;;;;;;19.87;84.83;96949.09;29395;199;63004;-52
2023/06/22 01:20:30;;;;;;;0.40;0.40;;;;;;;19.88;84.96;96944.41;29395;234;63009;-52
2023/06/22 01:21:08;;;;;;;0.40;0.40;;;;;;;19.87;84.65;96943.59;29394;268;64009;-57
2023/06/22 01:21:40;;;;;;;0.30;0.30;;;;;;;19.85;84.81;96937.66;29395;293;63009;-52
2023/06/22 01:22:15;;;;;;;0.40;0.40;;;;;;;19.85;84.72;96936.84;29395;202;63000;-52
2023/06/22 01:23:33;;;;;;;0.40;0.40;;;;;;;19.82;84.96;96941.09;29395;215;63009;-53
2023/06/22 01:24:52;;;;;;;0.40;0.40;;;;;;;19.79;85.69;96946.50;29394;286;64009;-52
2023/06/22 01:25:43;;;;;;;0.30;0.30;;;;;;;19.76;85.90;96942.50;29394;276;64009;-53
2023/06/22 01:26:43;;;;;;;0.40;0.40;;;;;;;19.74;85.77;96950.34;29417;336;63009;-53
2023/06/22 01:27:47;;;;;;;0.30;0.30;;;;;;;19.72;85.79;96947.13;29395;314;63009;-53
2023/06/22 01:28:46;;;;;;;0.30;0.30;;;;;;;19.72;85.78;96936.13;29395;211;63004;-53
2023/06/22 01:29:19;;;;;;;0.40;0.40;;;;;;;19.72;85.75;96936.91;29394;225;64013;-53
2023/06/22 01:30:00;;;;;;;0.30;0.30;;;;;;;19.73;85.64;96926.72;29394;248;64008;-53
2023/06/22 01:30:33;;;;;;;0.30;0.30;;;;;;;19.74;85.78;96928.31;29395;227;63009;-53
2023/06/22 01:31:08;;;;;;;0.30;0.30;;;;;;;19.74;85.95;96922.81;29395;197;63011;-53
2023/06/22 01:31:44;;;;;;;0.40;0.40;;;;;;;19.75;85.74;96925.19;29395;222;63009;-53
2023/06/22 01:32:17;;;;;;;0.30;0.30;;;;;;;19.75;85.56;96929.91;29394;422;64009;-53
2023/06/22 01:32:50;;;;;;;0.30;0.30;;;;;;;19.73;85.46;96927.50;29395;197;63009;-53
2023/06/22 01:33:21;;;;;;;0.30;0.30;;;;;;;19.72;85.32;96925.91;29395;292;63005;-53
2023/06/22 01:34:00;;;;;;;0.40;0.40;;;;;;;19.70;85.50;96928.22;29394;228;64013;-54
2023/06/22 01:34:33;;;;;;;0.30;0.30;;;;;;;19.68;85.91;96929.72;29395;299;63004;-53
2023/06/22 01:35:07;;;;;;;0.30;0.30;;;;;;;19.67;85.96;96933.62;29395;244;63009;-53
2023/06/22 01:35:39;;;;;;;0.30;0.30;;;;;;;19.66;86.22;96937.50;29395;202;63004;-53
2023/06/22 01:36:12;;;;;;;0.40;0.40;;;;;;;19.65;86.14;96941.41;29395;326;63008;-54
2023/06/22 01:36:45;;;;;;;0.30;0.30;;;;;;;19.64;86.12;96939.81;29395;301;63004;-54
2023/06/22 01:37:16;;;;;;;0.30;0.30;;;;;;;19.65;86.30;96949.69;29395;245;63009;-53
2023/06/22 01:37:49;;;;;;;0.30;0.30;;;;;;;19.64;86.59;96937.06;29394;245;64009;-52
2023/06/22 01:38:22;;;;;;;0.30;0.30;;;;;;;19.63;86.83;96932.72;29394;238;64014;-53
2023/06/22 01:38:54;;;;;;;0.40;0.40;;;;;;;19.63;87.62;96932.72;29395;197;63005;-53
2023/06/22 01:39:27;;;;;;;0.40;0.40;;;;;;;19.60;87.35;96938.91;29395;202;63009;-53
2023/06/22 01:39:59;;;;;;;0.40;0.40;;;;;;;19.60;87.00;96931.44;29395;202;63007;-53
2023/06/22 01:40:33;;;;;;;0.30;0.30;;;;;;;19.58;87.69;96933.75;29395;222;63015;-53
2023/06/22 01:41:05;;;;;;;0.40;0.40;;;;;;;19.58;87.44;96924.69;29395;259;63004;-53
2023/06/22 01:41:39;;;;;;;0.40;0.40;;;;;;;19.52;87.02;96917.84;29395;298;63009;-53
2023/06/22 01:42:11;;;;;;;0.40;0.40;;;;;;;19.57;87.59;96923.09;29395;298;63004;-54
2023/06/22 01:42:44;;;;;;;0.30;0.30;;;;;;;19.58;87.17;96913.69;29395;258;63009;-53
2023/06/22 01:43:16;;;;;;;0.40;0.40;;;;;;;19.58;87.17;96919.19;29394;307;64009;-53
2023/06/22 01:43:48;;;;;;;0.32;0.32;;;;;;;19.57;86.52;96918.38;29395;290;63008;-52
2023/06/22 01:44:21;;;;;;;0.40;0.40;;;;;;;19.58;86.85;96913.69;29395;291;63004;-53
2023/06/22 01:44:53;;;;;;;0.30;0.30;;;;;;;19.57;86.95;96917.59;29394;238;64014;-52
2023/06/22 01:45:26;;;;;;;0.40;0.40;;;;;;;19.56;86.85;96916.78;29395;423;63005;-52
2023/06/22 01:46:01;;;;;;;0.40;0.40;;;;;;;19.57;86.63;96923.09;29395;219;63009;-57
2023/06/22 01:46:34;;;;;;;0.37;0.37;;;;;;;19.57;86.87;96923.09;29395;312;63005;-53
2023/06/22 01:47:07;;;;;;;0.40;0.40;;;;;;;19.57;87.22;96928.59;29394;283;64013;-53
2023/06/22 01:47:39;;;;;;;0.40;0.40;;;;;;;19.56;87.40;96929.75;29395;216;63005;-53
2023/06/22 01:48:11;;;;;;;0.40;0.40;;;;;;;19.55;87.29;96926.19;29395;222;63009;-52
2023/06/22 01:48:42;;;;;;;0.40;0.40;;;;;;;19.55;87.34;96931.69;29394;212;64009;-53
2023/06/22 01:49:15;;;;;;;0.40;0.40;;;;;;;19.55;87.19;96930.91;29395;278;63009;-53
2023/06/22 01:49:46;;;;;;;0.40;0.40;;;;;;;19.54;86.95;96924.59;29395;286;63004;-53
2023/06/22 01:50:20;;;;;;;0.40;0.40;;;;;;;19.55;87.29;96928.94;29395;274;63009;-53
2023/06/22 01:50:53;;;;;;;0.30;0.30;;;;;;;19.55;87.13;96926.19;29395;251;63004;-53
2023/06/22 01:51:25;;;;;;;0.32;0.32;;;;;;;19.56;87.32;96927.00;29395;290;63008;-52
2023/06/22 01:51:56;;;;;;;0.40;0.40;;;;;;;19.56;86.89;96921.50;29395;203;63008;-53
2023/06/22 01:52:28;;;;;;;0.40;0.40;;;;;;;19.57;86.74;96929.41;29395;260;63009;-53
2023/06/22 01:52:59;;;;;;;0.40;0.40;;;;;;;19.56;86.60;96927.78;29394;212;64009;-53
2023/06/22 01:53:31;;;;;;;0.40;0.40;;;;;;;19.58;86.71;96924.69;29394;260;64014;-53
2023/06/22 01:54:03;;;;;;;0.30;0.30;;;;;;;19.58;86.51;96935.72;29395;207;63005;-53
2023/06/22 01:54:34;;;;;;;0.30;0.30;;;;;;;19.58;86.73;96932.94;29395;239;63009;-54
2023/06/22 01:55:07;;;;;;;0.30;0.30;;;;;;;19.57;86.47;96939.59;29394;295;64009;-54
2023/06/22 01:55:39;;;;;;;0.37;0.37;;;;;;;19.58;86.57;96941.22;29395;259;63009;-53
2023/06/22 01:56:10;;;;;;;0.40;0.40;;;;;;;19.56;86.67;96938.00;29395;241;63004;-54
2023/06/22 01:56:42;;;;;;;0.40;0.40;;;;;;;19.56;86.69;96943.50;29395;196;63009;-53
2023/06/22 01:57:14;;;;;;;0.40;0.40;;;;;;;19.55;86.97;96942.72;29395;249;63004;-52
2023/06/22 01:57:46;;;;;;;0.40;0.40;;;;;;;19.55;86.72;96944.66;29395;212;63009;-52
2023/06/22 01:58:20;;;;;;;0.40;0.40;;;;;;;19.55;87.10;96947.41;29395;226;63004;-52
2023/06/22 01:59:08;;;;;;;0.40;0.40;;;;;;;19.53;88.21;96947.75;29395;196;63008;-53
2023/06/22 02:00:04;;;;;;;0.40;0.40;;;;;;;19.50;88.47;96944.87;29394;283;64009;-53
2023/06/22 02:00:40;;;;;;;0.37;0.37;;;;;;;19.48;87.86;96947.16;29394;221;64009;-53
2023/06/22 02:01:17;;;;;;;0.40;0.40;;;;;;;19.47;88.28;96948.31;29395;254;63005;-53
2023/06/22 02:02:00;;;;;;;0.40;0.40;;;;;;;19.46;88.97;96949.47;29395;199;63009;-53
2023/06/22 02:02:39;;;;;;;0.40;0.40;;;;;;;19.43;88.94;96943.50;29395;241;63005;-53
2023/06/22 02:03:25;;;;;;;0.40;0.40;;;;;;;19.41;88.99;96945.81;29395;249;63009;-52
2023/06/22 02:04:11;;;;;;;0.40;0.40;;;;;;;19.38;88.70;96941.03;29395;310;63004;-52
2023/06/22 02:05:01;;;;;;;0.40;0.40;;;;;;;19.39;88.73;96956.38;29394;237;64013;-53
2023/06/22 02:05:44;;;;;;;0.30;0.30;;;;;;;19.38;89.21;96949.28;29395;285;63004;-58
2023/06/22 02:06:22;;;;;;;0.40;0.40;;;;;;;19.36;89.44;96951.59;29395;204;63008;-53
2023/06/22 02:08:20;;;;;;;0.40;0.40;;;;;;;19.33;89.63;96949.53;88178;196;64005;-53
2023/06/22 02:09:01;;;;;;;0.40;0.40;;;;;;;19.31;89.83;96949.06;29416;209;64009;-55
2023/06/22 02:09:34;;;;;;;0.40;0.40;;;;;;;19.30;89.61;96947.47;29438;266;64009;-53
2023/06/22 02:10:07;;;;;;;0.40;0.40;;;;;;;19.29;89.21;96956.06;29373;300;63009;-53
2023/06/22 02:10:42;;;;;;;0.40;0.40;;;;;;;19.27;91.00;96950.91;29395;267;63005;-53
2023/06/22 02:11:16;;;;;;;0.40;0.40;;;;;;;19.25;90.73;96949.66;29395;232;63009;-53
2023/06/22 02:11:53;;;;;;;0.40;0.40;;;;;;;19.24;90.17;96962.59;29395;200;63005;-54
2023/06/22 02:12:27;;;;;;;0.40;0.40;;;;;;;19.23;90.17;96954.69;29394;271;64013;-53
2023/06/22 02:13:01;;;;;;;0.40;0.40;;;;;;;19.22;90.84;96956.66;29395;285;63004;-53
2023/06/22 02:13:33;;;;;;;0.40;0.40;;;;;;;19.21;90.92;96960.53;29395;279;63009;-53
2023/06/22 02:14:06;;;;;;;0.40;0.40;;;;;;;19.21;91.24;96962.50;29395;210;63000;-52
2023/06/22 02:14:39;;;;;;;0.40;0.40;;;;;;;19.19;92.04;96962.84;29395;234;63009;-53
2023/06/22 02:15:12;;;;;;;0.40;0.40;;;;;;;19.18;91.80;96961.22;29394;301;64008;-53
2023/06/22 02:15:45;;;;;;;0.40;0.40;;;;;;;19.17;91.14;96959.63;29395;277;63005;-53
2023/06/22 02:16:17;;;;;;;0.40;0.40;;;;;;;19.18;90.92;96957.69;29395;291;63005;-53
2023/06/22 02:16:51;;;;;;;0.40;0.40;;;;;;;19.17;90.79;96959.63;29395;291;63005;-53
2023/06/22 02:17:24;;;;;;;0.40;0.40;;;;;;;19.17;90.92;96958.81;29395;252;63005;-53
2023/06/22 02:17:56;;;;;;;0.40;0.40;;;;;;;19.17;90.71;96956.06;29395;197;63009;-53
2023/06/22 02:18:28;;;;;;;0.40;0.40;;;;;;;19.18;90.47;96955.72;29395;272;63005;-53
2023/06/22 02:19:06;;;;;;;0.40;0.40;;;;;;;19.18;90.53;96955.72;29395;287;63020;-54
2023/06/22 02:19:38;;;;;;;0.40;0.40;;;;;;;19.19;90.20;96957.34;29395;284;63018;-53
2023/06/22 02:20:13;;;;;;;0.40;0.40;;;;;;;19.19;90.43;96956.53;29394;251;64013;-54
2023/06/22 02:20:44;;;;;;;0.40;0.40;;;;;;;19.19;91.02;96954.59;29395;216;63004;-54
2023/06/22 02:21:15;;;;;;;0.40;0.40;;;;;;;19.18;91.29;96960.44;29395;300;63016;-53
2023/06/22 02:21:47;;;;;;;0.40;0.40;;;;;;;19.17;91.07;96947.81;29395;266;63004;-53
2023/06/22 02:22:18;;;;;;;0.40;0.40;;;;;;;19.15;92.45;96953.66;29395;275;63009;-53
2023/06/22 02:22:50;;;;;;;0.40;0.40;;;;;;;19.13;92.53;96953.22;29395;214;63004;-53
2023/06/22 02:23:21;;;;;;;0.40;0.40;;;;;;;19.12;92.47;96946.13;29395;283;63014;-53
2023/06/22 02:23:52;;;;;;;0.40;0.40;;;;;;;19.11;92.39;96949.22;29395;307;63005;-54
2023/06/22 02:24:23;;;;;;;0.40;0.40;;;;;;;19.08;93.07;96945.19;29395;202;63009;-53
2023/06/22 02:24:55;;;;;;;0.70;0.70;;;;;;;19.07;92.87;96949.09;29395;219;63005;-52
2023/06/22 02:25:26;;;;;;;0.40;0.40;;;;;;;19.07;92.39;96949.91;29394;197;64013;-53
2023/06/22 02:25:57;;;;;;;0.37;0.37;;;;;;;19.07;92.04;96952.66;29395;229;63005;-53
2023/06/22 02:26:30;;;;;;;0.40;0.40;;;;;;;19.07;92.52;96951.84;29394;241;64013;-53
2023/06/22 02:27:02;;;;;;;0.40;0.40;;;;;;;19.07;92.54;96943.59;29395;297;63004;-53
2023/06/22 02:27:33;;;;;;;0.40;0.40;;;;;;;19.07;92.69;96949.91;29395;216;63009;-53
2023/06/22 02:28:05;;;;;;;0.30;0.30;;;;;;;19.07;92.70;96954.59;29395;287;63007;-53
2023/06/22 02:28:36;;;;;;;0.40;0.40;;;;;;;19.07;92.91;96951.84;29395;230;63009;-53
2023/06/22 02:29:07;;;;;;;0.40;0.40;;;;;;;19.05;93.10;96951.41;29395;252;63004;-53
2023/06/22 02:29:38;;;;;;;0.40;0.40;;;;;;;19.03;93.24;96945.47;29395;289;63008;-53
2023/06/22 02:30:10;;;;;;;0.40;0.40;;;;;;;19.02;92.87;96946.59;29395;267;63004;-53
2023/06/22 02:30:41;;;;;;;0.40;0.40;;;;;;;19.02;93.30;96946.59;29395;237;63008;-53
2023/06/22 02:31:13;;;;;;;0.30;0.30;;;;;;;19.01;93.15;96940.31;29394;199;64009;-53
2023/06/22 02:31:45;;;;;;;0.40;0.40;;;;;;;19.01;92.84;96939.50;29394;203;64013;-53
2023/06/22 02:32:17;;;;;;;0.40;0.40;;;;;;;19.02;92.67;96930.13;29395;260;63005;-53
2023/06/22 02:32:49;;;;;;;0.40;0.40;;;;;;;19.03;92.67;96934.47;29394;205;64013;-53
2023/06/22 02:33:20;;;;;;;0.40;0.40;;;;;;;19.03;92.53;96932.50;29395;243;63005;-52
2023/06/22 02:33:51;;;;;;;0.40;0.40;;;;;;;19.03;92.40;96935.25;29395;252;63026;-53
2023/06/22 02:34:23;;;;;;;0.30;0.30;;;;;;;19.03;92.43;96931.72;29395;310;63004;-53
2023/06/22 02:34:54;;;;;;;0.40;0.40;;;;;;;19.03;92.58;96926.22;29395;227;63009;-53
2023/06/22 02:35:31;;;;;;;0.30;0.30;;;;;;;19.02;92.46;96927.38;29395;218;63015;-53
2023/06/22 02:36:05;;;;;;;0.40;0.40;;;;;;;19.01;92.33;96936.75;29394;202;64013;-53
2023/06/22 02:36:36;;;;;;;0.40;0.40;;;;;;;19.01;92.31;96934.81;29395;225;63013;-54
2023/06/22 02:37:07;;;;;;;0.40;0.40;;;;;;;19.02;92.88;96932.88;29395;310;63014;-53
2023/06/22 02:37:41;;;;;;;0.40;0.40;;;;;;;19.02;93.02;96938.34;29395;203;63005;-54
2023/06/22 02:38:12;;;;;;;0.40;0.40;;;;;;;19.02;93.14;96941.09;29395;281;63009;-53
2023/06/22 02:38:48;;;;;;;0.30;0.30;;;;;;;19.02;92.92;96941.09;29395;326;63005;-53
2023/06/22 02:39:24;;;;;;;0.40;0.40;;;;;;;19.02;92.92;96941.09;29395;295;63009;-53
2023/06/22 02:39:55;;;;;;;0.40;0.40;;;;;;;19.01;92.61;96932.06;29395;280;63005;-53
2023/06/22 02:40:28;;;;;;;0.40;0.40;;;;;;;19.01;92.96;96936.75;29395;314;63026;-53
2023/06/22 02:40:59;;;;;;;0.40;0.40;;;;;;;19.01;93.54;96929.31;29394;339;64009;-53
2023/06/22 02:41:30;;;;;;;0.30;0.30;;;;;;;19.01;93.08;96945.00;29395;238;63009;-53
2023/06/22 02:42:02;;;;;;;0.40;0.40;;;;;;;19.01;92.62;96939.50;29395;363;63004;-53
2023/06/22 02:42:33;;;;;;;0.40;0.40;;;;;;;19.01;92.75;96934.81;29394;239;64013;-53
2023/06/22 02:43:04;;;;;;;0.40;0.40;;;;;;;19.01;92.99;96939.50;29394;279;64009;-53
2023/06/22 02:43:35;;;;;;;0.40;0.40;;;;;;;19.01;92.67;96932.06;29395;251;63009;-53
2023/06/22 02:44:06;;;;;;;0.40;0.40;;;;;;;19.02;92.44;96935.59;29395;251;63004;-53
2023/06/22 02:44:38;;;;;;;0.40;0.40;;;;;;;19.02;92.35;96930.91;29394;296;64013;-52
2023/06/22 02:45:10;;;;;;;0.40;0.40;;;;;;;19.01;92.47;96923.00;29395;228;63005;-53